createdAt,value
2023-04-20T00:01:33.995Z,93.92
2023-04-20T00:04:19.147Z,94.71
2023-04-20T00:07:04.512Z,94.01
2023-04-20T00:09:49.925Z,93.50
2023-04-20T00:12:35.840Z,94.57
2023-04-20T00:15:21.447Z,93.84
2023-04-20T00:18:07.065Z,93.76
2023-04-20T00:20:52.341Z,94.71
2023-04-20T00:23:37.884Z,94.48
2023-04-20T00:26:23.145Z,94.42
2023-04-20T00:29:14.002Z,92.59
2023-04-20T00:31:59.391Z,93.73
2023-04-20T00:34:44.743Z,93.52
2023-04-20T00:37:30.054Z,93.60
2023-04-20T00:40:15.824Z,93.30
2023-04-20T00:43:11.314Z,93.95
2023-04-20T00:45:56.810Z,93.02
2023-04-20T00:48:42.115Z,93.07
2023-04-20T00:51:29.406Z,92.91
2023-04-20T00:54:16.183Z,93.94
2023-04-20T00:57:02.625Z,94.24
2023-04-20T00:59:48.392Z,93.35
2023-04-20T01:02:33.933Z,92.94
2023-04-20T01:05:21.169Z,93.41
2023-04-20T01:08:06.931Z,92.91
2023-04-20T01:10:56.100Z,92.78
2023-04-20T01:13:42.217Z,93.12
2023-04-20T01:16:27.909Z,92.82
2023-04-20T01:19:13.561Z,93.52
2023-04-20T01:21:59.123Z,93.25
2023-04-20T01:24:47.842Z,93.79
2023-04-20T01:27:33.329Z,93.24
2023-04-20T01:30:19.727Z,93.99
2023-04-20T01:33:05.135Z,94.97
2023-04-20T01:35:52.831Z,94.53
2023-04-20T01:38:37.998Z,95.06
2023-04-20T01:41:23.443Z,95.12
2023-04-20T01:44:08.546Z,95.58
2023-04-20T01:46:54.029Z,95.08
2023-04-20T01:49:39.526Z,94.89
2023-04-20T01:52:24.798Z,94.81
2023-04-20T01:55:11.579Z,94.46
2023-04-20T01:57:59.925Z,94.82
2023-04-20T02:00:45.459Z,95.08
2023-04-20T02:03:31.192Z,95.23
2023-04-20T02:06:16.480Z,94.97
2023-04-20T02:09:02.049Z,95.27
2023-04-20T02:11:47.185Z,94.76
2023-04-20T02:14:32.627Z,94.72
2023-04-20T02:17:18.333Z,94.47
2023-04-20T02:20:09.213Z,94.22
2023-04-20T02:22:54.500Z,94.07
2023-04-20T02:25:39.878Z,94.43
2023-04-20T02:28:25.367Z,94.14
2023-04-20T02:31:11.048Z,94.18
2023-04-20T02:33:56.312Z,93.94
2023-04-20T02:36:41.765Z,93.65
2023-04-20T02:39:29.957Z,93.33
2023-04-20T02:42:15.592Z,93.19
2023-04-20T02:45:01.916Z,93.77
2023-04-20T02:47:47.642Z,93.32
2023-04-20T02:50:35.025Z,93.01
2023-04-20T02:53:27.879Z,93.37
2023-04-20T02:56:27.166Z,93.65
2023-04-20T02:59:15.403Z,93.26
2023-04-20T03:02:11.380Z,94.08
2023-04-20T03:04:57.967Z,93.73
2023-04-20T03:07:43.449Z,93.56
2023-04-20T03:10:31.064Z,94.34
2023-04-20T03:13:23.149Z,94.69
2023-04-20T03:16:14.960Z,94.71
2023-04-20T03:19:04.582Z,94.40
2023-04-20T03:21:50.124Z,94.25
2023-04-20T03:24:36.201Z,93.63
2023-04-20T03:27:30.924Z,94.17
2023-04-20T03:30:28.829Z,93.88
2023-04-20T03:33:22.418Z,94.07
2023-04-20T03:36:09.269Z,93.99
2023-04-20T03:38:55.625Z,93.64
2023-04-20T03:41:41.086Z,94.10
2023-04-20T03:44:26.509Z,94.44
2023-04-20T03:47:12.117Z,94.79
2023-04-20T03:49:58.025Z,94.85
2023-04-20T03:52:43.410Z,94.41
2023-04-20T03:55:29.932Z,94.57
2023-04-20T03:58:21.649Z,94.91
2023-04-20T04:01:20.358Z,94.26
2023-04-20T04:04:07.723Z,94.57
2023-04-20T04:06:53.375Z,94.66
2023-04-20T04:09:38.739Z,95.39
2023-04-20T04:12:25.844Z,94.70
2023-04-20T04:15:12.294Z,94.70
2023-04-20T04:18:05.701Z,94.93
2023-04-20T04:20:52.669Z,95.23
2023-04-20T04:23:40.000Z,94.76
2023-04-20T04:26:39.682Z,95.70
2023-04-20T04:29:28.000Z,96.13
2023-04-20T04:32:18.093Z,96.30
2023-04-20T04:35:06.459Z,96.51
2023-04-20T04:37:55.191Z,96.63
2023-04-20T04:40:41.677Z,96.27
2023-04-20T04:43:27.872Z,96.27
2023-04-20T04:46:25.374Z,96.60
2023-04-20T04:49:11.464Z,96.31
2023-04-20T04:51:56.387Z,95.69
2023-04-20T04:54:41.811Z,95.60
2023-04-20T04:57:27.366Z,95.74
2023-04-20T05:00:15.829Z,95.91
2023-04-20T05:03:01.391Z,96.22
2023-04-20T05:05:46.850Z,95.95
2023-04-20T05:08:32.355Z,95.44
2023-04-20T05:11:17.715Z,95.71
2023-04-20T05:14:03.487Z,94.98
2023-04-20T05:16:48.705Z,94.72
2023-04-20T05:19:34.166Z,94.44
2023-04-20T05:22:19.362Z,93.58
2023-04-20T05:25:07.267Z,92.47
2023-04-20T05:27:52.383Z,92.20
2023-04-20T05:30:37.965Z,91.92
2023-04-20T05:33:23.273Z,92.12
2023-04-20T05:36:09.781Z,91.23
2023-04-20T05:38:55.469Z,91.65
2023-04-20T05:41:40.533Z,90.42
2023-04-20T05:44:25.659Z,89.68
2023-04-20T05:47:11.185Z,88.74
2023-04-20T05:49:56.294Z,88.76
2023-04-20T05:52:41.620Z,88.38
2023-04-20T05:55:27.036Z,88.10
2023-04-20T05:58:12.435Z,88.81
2023-04-20T06:00:59.155Z,88.82
2023-04-20T06:03:44.645Z,88.68
2023-04-20T06:06:30.708Z,100.00
2023-04-20T06:09:16.213Z,93.20
2023-04-20T06:12:02.621Z,88.05
2023-04-20T06:14:48.199Z,87.69
2023-04-20T06:17:37.709Z,85.52
2023-04-20T06:20:23.785Z,85.37
2023-04-20T06:23:09.378Z,85.28
2023-04-20T06:25:54.685Z,84.93
2023-04-20T06:28:40.689Z,84.55
2023-04-20T06:31:26.309Z,84.46
2023-04-20T06:34:12.319Z,84.46
2023-04-20T06:36:57.549Z,84.78
2023-04-20T06:39:42.848Z,85.37
2023-04-20T06:42:28.267Z,87.17
2023-04-20T06:45:15.797Z,87.16
2023-04-20T06:48:01.494Z,86.88
2023-04-20T06:50:50.571Z,86.27
2023-04-20T06:53:35.752Z,86.33
2023-04-20T06:56:22.918Z,86.40
2023-04-20T06:59:08.209Z,86.48
2023-04-20T07:01:53.825Z,84.70
2023-04-20T07:04:38.893Z,84.55
2023-04-20T07:07:24.278Z,83.83
2023-04-20T07:10:11.711Z,82.46
2023-04-20T07:12:57.082Z,81.75
2023-04-20T07:15:45.052Z,80.85
2023-04-20T07:18:31.935Z,80.04
2023-04-20T07:21:19.956Z,78.65
2023-04-20T07:24:05.864Z,78.33
2023-04-20T07:26:51.334Z,79.12
2023-04-20T07:29:36.471Z,78.72
2023-04-20T07:32:22.359Z,78.93
2023-04-20T07:35:08.085Z,78.62
2023-04-20T07:37:53.645Z,78.77
2023-04-20T07:40:38.765Z,76.05
2023-04-20T07:43:24.247Z,76.47
2023-04-20T07:46:09.737Z,76.75
2023-04-20T07:48:55.227Z,77.02
2023-04-20T07:51:43.479Z,77.88
2023-04-20T07:54:28.564Z,78.97
2023-04-20T07:57:14.054Z,78.75
2023-04-20T07:59:59.185Z,78.81
2023-04-20T08:02:44.530Z,78.81
2023-04-20T08:05:30.060Z,78.36
2023-04-20T08:08:17.768Z,77.28
2023-04-20T08:11:02.982Z,77.21
2023-04-20T08:13:48.293Z,76.11
2023-04-20T08:16:33.564Z,75.15
2023-04-20T08:19:19.077Z,74.28
2023-04-20T08:22:05.987Z,72.85
2023-04-20T08:24:51.128Z,71.76
2023-04-20T08:27:36.686Z,70.12
2023-04-20T08:30:24.545Z,70.56
2023-04-20T08:33:10.509Z,71.22
2023-04-20T08:35:56.258Z,73.07
2023-04-20T08:38:41.810Z,73.30
2023-04-20T08:41:26.999Z,74.32
2023-04-20T08:44:12.609Z,74.96
2023-04-20T08:46:59.924Z,75.34
2023-04-20T08:49:46.281Z,76.32
2023-04-20T08:52:32.542Z,76.29
2023-04-20T08:55:18.641Z,76.72
2023-04-20T08:58:04.121Z,78.35
2023-04-20T09:00:49.739Z,79.63
2023-04-20T09:03:40.977Z,80.58
2023-04-20T09:06:26.821Z,81.39
2023-04-20T09:09:12.142Z,81.84
2023-04-20T09:12:06.771Z,81.66
2023-04-20T09:14:52.395Z,81.72
2023-04-20T09:17:41.056Z,82.62
2023-04-20T09:20:31.539Z,82.92
2023-04-20T09:23:18.492Z,84.51
2023-04-20T09:26:04.086Z,84.40
2023-04-20T09:28:49.477Z,85.18
2023-04-20T09:31:36.598Z,85.44
2023-04-20T09:34:23.962Z,84.34
2023-04-20T09:37:11.280Z,84.30
2023-04-20T09:39:59.996Z,84.35
2023-04-20T09:42:47.253Z,82.91
2023-04-20T09:45:32.984Z,82.43
2023-04-20T09:48:20.737Z,79.84
2023-04-20T09:51:07.006Z,78.09
2023-04-20T09:53:54.609Z,75.92
2023-04-20T09:56:41.155Z,76.31
2023-04-20T09:59:27.619Z,76.05
2023-04-20T10:02:14.124Z,75.01
2023-04-20T10:04:59.802Z,76.11
2023-04-20T10:07:45.112Z,75.48
2023-04-20T10:10:31.005Z,77.33
2023-04-20T10:13:19.236Z,75.88
2023-04-20T10:16:04.826Z,75.29
2023-04-20T10:19:05.691Z,76.23
2023-04-20T10:21:51.864Z,75.04
2023-04-20T10:24:40.496Z,75.76
2023-04-20T10:27:26.130Z,75.03
2023-04-20T10:30:11.819Z,73.51
2023-04-20T10:33:11.937Z,73.21
2023-04-20T10:35:58.929Z,71.36
2023-04-20T10:38:44.129Z,71.17
2023-04-20T10:41:29.692Z,72.13
2023-04-20T10:44:15.516Z,70.83
2023-04-20T10:47:01.399Z,70.52
2023-04-20T10:49:46.922Z,69.35
2023-04-20T10:52:36.498Z,68.76
2023-04-20T10:55:24.450Z,68.99
2023-04-20T10:58:09.745Z,68.82
2023-04-20T11:01:02.095Z,69.58
2023-04-20T11:03:52.146Z,70.56
2023-04-20T11:06:39.389Z,69.73
2023-04-20T11:09:28.513Z,70.91
2023-04-20T11:12:14.715Z,70.50
2023-04-20T11:15:02.679Z,70.81
2023-04-20T11:17:48.225Z,69.52
2023-04-20T11:20:33.870Z,70.06
2023-04-20T11:23:20.797Z,71.31
2023-04-20T11:26:06.799Z,70.92
2023-04-20T11:28:55.974Z,69.97
2023-04-20T11:31:42.247Z,70.90
2023-04-20T11:34:27.990Z,72.00
2023-04-20T11:37:13.756Z,72.38
2023-04-20T11:40:06.443Z,71.24
2023-04-20T11:42:51.923Z,71.03
2023-04-20T11:45:37.187Z,70.54
2023-04-20T11:48:22.623Z,70.01
2023-04-20T11:51:07.972Z,69.83
2023-04-20T11:53:53.177Z,69.69
2023-04-20T11:56:39.466Z,68.44
2023-04-20T11:59:25.273Z,68.14
2023-04-20T12:02:10.775Z,68.19
2023-04-20T12:05:02.071Z,67.33
2023-04-20T12:07:47.501Z,67.05
2023-04-20T12:10:32.711Z,67.57
2023-04-20T12:13:18.052Z,67.39
2023-04-20T12:16:03.558Z,68.46
2023-04-20T12:18:48.816Z,69.01
2023-04-20T12:21:34.092Z,69.81
2023-04-20T12:24:19.476Z,70.43
2023-04-20T12:27:06.010Z,71.23
2023-04-20T12:29:51.869Z,71.06
2023-04-20T12:32:37.165Z,71.38
2023-04-20T12:35:22.774Z,71.45
2023-04-20T12:38:08.381Z,70.72
2023-04-20T12:40:53.770Z,70.68
2023-04-20T12:43:39.227Z,69.81
2023-04-20T12:46:25.522Z,70.75
2023-04-20T12:49:10.986Z,72.07
2023-04-20T12:51:56.285Z,70.68
2023-04-20T12:54:43.882Z,67.10
2023-04-20T12:57:29.559Z,67.32
2023-04-20T13:00:15.237Z,66.87
2023-04-20T13:03:00.703Z,66.12
2023-04-20T13:05:46.280Z,65.34
2023-04-20T13:08:31.754Z,66.30
2023-04-20T13:11:17.977Z,66.24
2023-04-20T13:14:03.607Z,65.55
2023-04-20T13:16:54.521Z,64.41
2023-04-20T13:19:40.827Z,65.17
2023-04-20T13:22:26.209Z,64.79
2023-04-20T13:25:11.995Z,65.09
2023-04-20T13:27:57.692Z,65.43
2023-04-20T13:30:43.832Z,65.46
2023-04-20T13:33:29.318Z,65.56
2023-04-20T13:36:14.948Z,65.97
2023-04-20T13:39:01.692Z,65.93
2023-04-20T13:41:49.196Z,65.97
2023-04-20T13:44:35.343Z,64.89
2023-04-20T13:47:21.206Z,63.85
2023-04-20T13:50:07.229Z,63.42
2023-04-20T13:52:52.393Z,62.54
2023-04-20T13:55:37.573Z,62.76
2023-04-20T13:58:22.956Z,62.61
2023-04-20T14:01:12.685Z,62.55
2023-04-20T14:03:58.628Z,61.87
2023-04-20T14:06:44.200Z,61.94
2023-04-20T14:09:31.181Z,62.00
2023-04-20T14:12:16.700Z,61.67
2023-04-20T14:15:02.262Z,61.80
2023-04-20T14:17:47.381Z,61.71
2023-04-20T14:20:32.664Z,61.43
2023-04-20T14:23:19.406Z,61.02
2023-04-20T14:26:04.959Z,60.48
2023-04-20T14:28:52.948Z,60.68
2023-04-20T14:31:38.581Z,60.15
2023-04-20T14:34:26.540Z,60.17
2023-04-20T14:37:11.928Z,60.35
2023-04-20T14:39:57.368Z,59.85
2023-04-20T14:42:42.744Z,59.29
2023-04-20T14:45:28.728Z,59.00
2023-04-20T14:48:13.881Z,59.04
2023-04-20T14:50:59.203Z,58.87
2023-04-20T14:53:44.264Z,57.91
2023-04-20T14:56:29.704Z,58.00
2023-04-20T14:59:15.012Z,57.60
2023-04-20T15:02:02.722Z,57.30
2023-04-20T15:04:49.115Z,56.76
2023-04-20T15:07:34.485Z,56.77
2023-04-20T15:10:20.549Z,56.78
2023-04-20T15:13:06.620Z,57.07
2023-04-20T15:15:54.825Z,56.58
2023-04-20T15:18:40.514Z,55.67
2023-04-20T15:21:25.885Z,55.38
2023-04-20T15:24:11.163Z,56.00
2023-04-20T15:26:56.384Z,56.19
2023-04-20T15:29:41.716Z,56.28
2023-04-20T15:32:27.376Z,55.24
2023-04-20T15:35:12.775Z,55.82
2023-04-20T15:37:58.226Z,55.69
2023-04-20T15:40:43.490Z,54.58
2023-04-20T15:43:29.290Z,54.59
2023-04-20T15:46:17.598Z,55.02
2023-04-20T15:49:02.827Z,54.91
2023-04-20T15:51:51.024Z,55.62
2023-04-20T15:54:37.300Z,55.89
2023-04-20T15:57:22.645Z,55.72
2023-04-20T16:00:09.715Z,55.96
2023-04-20T16:03:01.359Z,55.76
2023-04-20T16:05:47.076Z,56.39
2023-04-20T16:08:32.619Z,56.24
2023-04-20T16:11:17.649Z,56.42
2023-04-20T16:14:05.255Z,56.17
2023-04-20T16:16:50.812Z,56.61
2023-04-20T16:19:36.307Z,57.17
2023-04-20T16:22:21.603Z,57.66
2023-04-20T16:25:07.268Z,58.06
2023-04-20T16:27:52.437Z,58.71
2023-04-20T16:30:37.668Z,58.39
2023-04-20T16:33:23.028Z,58.73
2023-04-20T16:36:12.248Z,59.30
2023-04-20T16:38:57.693Z,59.62
2023-04-20T16:41:43.071Z,59.38
2023-04-20T16:44:28.292Z,58.93
2023-04-20T16:47:13.335Z,58.89
2023-04-20T16:49:59.121Z,58.40
2023-04-20T16:52:44.258Z,58.06
2023-04-20T16:55:29.679Z,57.99
2023-04-20T16:58:14.927Z,58.79
2023-04-20T17:01:00.407Z,58.70
2023-04-20T17:03:46.101Z,59.00
2023-04-20T17:06:31.554Z,59.32
2023-04-20T17:09:17.096Z,60.12
2023-04-20T17:12:02.412Z,60.09
2023-04-20T17:14:47.508Z,59.79
2023-04-20T17:17:34.087Z,59.59
2023-04-20T17:20:19.846Z,59.31
2023-04-20T17:23:05.383Z,59.35
2023-04-20T17:25:51.324Z,58.91
2023-04-20T17:28:41.924Z,59.17
2023-04-20T17:31:27.308Z,59.99
2023-04-20T17:34:12.699Z,60.03
2023-04-20T17:36:57.735Z,60.83
2023-04-20T17:39:43.591Z,60.76
2023-04-20T17:42:28.970Z,61.19
2023-04-20T17:45:14.359Z,61.46
2023-04-20T17:47:59.562Z,62.17
2023-04-20T17:50:50.959Z,62.04
2023-04-20T17:53:36.214Z,62.36
2023-04-20T17:56:21.721Z,62.71
2023-04-20T17:59:07.249Z,63.23
2023-04-20T18:01:52.469Z,63.43
2023-04-20T18:04:38.858Z,63.82
2023-04-20T18:07:24.272Z,63.96
2023-04-20T18:10:10.328Z,64.86
2023-04-20T18:12:55.510Z,64.92
2023-04-20T18:15:40.845Z,64.88
2023-04-20T18:18:26.069Z,64.92
2023-04-20T18:21:13.978Z,65.50
2023-04-20T18:23:59.310Z,66.29
2023-04-20T18:26:44.765Z,66.05
2023-04-20T18:29:30.327Z,66.13
2023-04-20T18:32:17.913Z,66.52
2023-04-20T18:35:06.488Z,67.22
2023-04-20T18:37:53.386Z,67.33
2023-04-20T18:40:39.039Z,67.83
2023-04-20T18:43:24.301Z,67.82
2023-04-20T18:46:10.021Z,68.47
2023-04-20T18:48:55.635Z,67.99
2023-04-20T18:51:43.744Z,68.19
2023-04-20T18:54:29.113Z,69.02
2023-04-20T18:57:14.605Z,68.65
2023-04-20T18:59:59.771Z,69.05
2023-04-20T19:02:45.058Z,69.38
2023-04-20T19:05:30.794Z,68.97
2023-04-20T19:08:18.536Z,69.30
2023-04-20T19:11:04.112Z,69.33
2023-04-20T19:13:49.296Z,69.19
2023-04-20T19:16:37.202Z,68.44
2023-04-20T19:19:24.461Z,68.75
2023-04-20T19:22:09.544Z,68.42
2023-04-20T19:24:57.763Z,68.91
2023-04-20T19:27:43.242Z,68.88
2023-04-20T19:30:28.461Z,68.55
2023-04-20T19:33:13.952Z,69.05
2023-04-20T19:35:59.336Z,68.82
2023-04-20T19:38:45.683Z,69.44
2023-04-20T19:41:35.014Z,68.92
2023-04-20T19:44:20.646Z,68.96
2023-04-20T19:47:06.890Z,69.04
2023-04-20T19:49:52.497Z,68.64
2023-04-20T19:52:37.657Z,68.97
2023-04-20T19:55:22.917Z,68.99
2023-04-20T19:58:10.520Z,68.94
2023-04-20T20:00:56.245Z,68.63
2023-04-20T20:03:42.897Z,69.03
2023-04-20T20:06:28.455Z,68.88
2023-04-20T20:09:13.592Z,68.87
2023-04-20T20:12:01.057Z,68.72
2023-04-20T20:14:46.084Z,68.48
2023-04-20T20:17:31.648Z,68.75
2023-04-20T20:20:17.407Z,68.86
2023-04-20T20:23:02.792Z,69.23
2023-04-20T20:25:47.994Z,69.20
2023-04-20T20:28:33.492Z,69.16
2023-04-20T20:31:18.829Z,69.35
2023-04-20T20:34:03.926Z,68.89
2023-04-20T20:36:53.135Z,69.43
2023-04-20T20:39:38.487Z,70.05
2023-04-20T20:42:25.569Z,70.02
2023-04-20T20:45:12.344Z,70.26
2023-04-20T20:47:58.247Z,70.03
2023-04-20T20:50:43.539Z,70.14
2023-04-20T20:53:28.585Z,70.07
2023-04-20T20:56:14.049Z,70.01
2023-04-20T20:58:59.570Z,69.86
2023-04-20T21:01:44.948Z,70.20
2023-04-20T21:04:30.483Z,70.34
2023-04-20T21:07:15.834Z,70.19
2023-04-20T21:10:00.988Z,70.49
2023-04-20T21:12:46.113Z,70.56
2023-04-20T21:15:31.364Z,70.20
2023-04-20T21:18:16.821Z,69.92
2023-04-20T21:21:02.183Z,70.15
2023-04-20T21:23:48.691Z,69.95
2023-04-20T21:26:37.161Z,70.18
2023-04-20T21:29:22.665Z,69.96
2023-04-20T21:32:09.650Z,69.59
2023-04-20T21:34:54.702Z,70.03
2023-04-20T21:37:40.327Z,70.67
2023-04-20T21:40:26.832Z,70.16
2023-04-20T21:43:12.224Z,70.33
2023-04-20T21:45:57.480Z,70.16
2023-04-20T21:48:43.037Z,69.90
2023-04-20T21:51:28.353Z,70.36
2023-04-20T21:54:13.795Z,70.20
2023-04-20T21:56:59.549Z,70.28
2023-04-20T21:59:44.772Z,70.00
2023-04-20T22:02:30.454Z,69.75
2023-04-20T22:05:15.479Z,69.89
2023-04-20T22:08:01.198Z,70.04
2023-04-20T22:10:46.464Z,70.39
2023-04-20T22:13:31.630Z,70.53
2023-04-20T22:16:17.975Z,70.67
2023-04-20T22:19:04.203Z,70.48
2023-04-20T22:21:49.480Z,70.44
2023-04-20T22:24:34.937Z,70.92
2023-04-20T22:27:20.029Z,70.70
2023-04-20T22:30:06.550Z,70.22
2023-04-20T22:32:51.900Z,70.62
2023-04-20T22:35:37.649Z,70.84
2023-04-20T22:38:23.167Z,71.35
2023-04-20T22:41:08.486Z,71.01
2023-04-20T22:43:53.959Z,71.47
2023-04-20T22:46:39.519Z,71.64
2023-04-20T22:49:24.965Z,71.44
2023-04-20T22:52:11.071Z,71.66
2023-04-20T22:54:56.290Z,71.53
2023-04-20T22:57:41.488Z,71.73
2023-04-20T23:00:26.696Z,71.61
2023-04-20T23:03:12.301Z,71.66
2023-04-20T23:05:58.898Z,71.57
2023-04-20T23:08:45.609Z,71.38
2023-04-20T23:11:30.716Z,70.73
2023-04-20T23:14:16.184Z,70.53
2023-04-20T23:17:01.590Z,70.40
2023-04-20T23:19:47.340Z,68.92
2023-04-20T23:22:32.460Z,69.04
2023-04-20T23:25:17.889Z,68.83
2023-04-20T23:28:03.322Z,68.54
2023-04-20T23:30:48.502Z,68.97
2023-04-20T23:33:33.949Z,68.80
2023-04-20T23:36:19.301Z,68.84
2023-04-20T23:39:05.685Z,68.58
2023-04-20T23:41:51.200Z,68.99
2023-04-20T23:44:36.676Z,69.02
2023-04-20T23:47:22.167Z,69.15
2023-04-20T23:50:08.272Z,69.68
2023-04-20T23:52:56.098Z,69.57
2023-04-20T23:55:41.373Z,70.03
2023-04-20T23:58:28.145Z,69.49
